Time;durP1;ratioP1;P1;durP2;ratioP2;P2;SDS_P1;SDS_P2;PMS_P1;PMS_P2;Temp;Humidity;BMP_temperature;BMP_pressure;BME280_temperature;BME280_humidity;BME280_pressure;Samples;Min_cycle;Max_cycle;Signal;HPM_P1;HPM_P2
2022/07/04 00:02:16;;;;;;;3.77;1.50;;;24.10;99.90;;;;;;1924187;73;21030;-75
2022/07/04 00:05:10;;;;;;;3.27;1.30;;;24.20;99.90;;;;;;1948343;73;21047;-75
2022/07/04 00:08:01;;;;;;;4.05;1.30;;;24.20;99.90;;;;;;1913962;74;21090;-75
2022/07/04 00:10:53;;;;;;;3.77;1.10;;;24.20;99.90;;;;;;1901879;74;21064;-75
2022/07/04 00:13:44;;;;;;;2.83;1.02;;;24.40;99.90;;;;;;1903104;74;21063;-74
2022/07/04 00:16:36;;;;;;;2.22;0.80;;;24.60;99.90;;;;;;1913143;74;21179;-74
2022/07/04 00:19:27;;;;;;;0.80;0.70;;;24.80;99.90;;;;;;1924341;73;21101;-74
2022/07/04 00:22:19;;;;;;;4.17;1.90;;;24.80;99.90;;;;;;1879498;76;21124;-75
2022/07/04 00:25:11;;;;;;;1.98;1.05;;;24.80;99.90;;;;;;1921438;74;21058;-75
2022/07/04 00:28:02;;;;;;;1.85;0.72;;;24.90;99.90;;;;;;1880763;76;21118;-75
2022/07/04 00:30:54;;;;;;;3.37;1.00;;;24.90;99.90;;;;;;1889470;76;21053;-75
2022/07/04 00:33:46;;;;;;;1.35;0.60;;;24.80;99.90;;;;;;1910679;74;21047;-75
2022/07/04 00:36:37;;;;;;;3.37;0.90;;;24.80;99.90;;;;;;1910848;74;21047;-75
2022/07/04 00:39:29;;;;;;;2.87;0.80;;;24.90;99.90;;;;;;1911222;74;21171;-75
2022/07/04 00:42:20;;;;;;;2.92;0.82;;;24.80;99.90;;;;;;1916828;74;21170;-75
2022/07/04 00:45:12;;;;;;;2.98;0.80;;;24.70;99.90;;;;;;1911511;74;21115;-75
2022/07/04 00:48:04;;;;;;;1.47;0.90;;;24.70;99.90;;;;;;1911092;74;21092;-75
2022/07/04 00:50:55;;;;;;;2.45;0.72;;;24.70;99.90;;;;;;1910715;74;21066;-75
2022/07/04 00:53:47;;;;;;;1.87;0.70;;;24.60;99.90;;;;;;1915204;74;21057;-75
2022/07/04 00:56:39;;;;;;;3.40;0.70;;;24.80;99.90;;;;;;1912854;74;21095;-75
2022/07/04 00:59:31;;;;;;;3.98;1.02;;;24.80;99.90;;;;;;1910679;74;21111;-76
2022/07/04 01:02:22;;;;;;;1.22;0.75;;;24.80;99.90;;;;;;1921542;74;21343;-75
2022/07/04 01:05:14;;;;;;;1.95;0.80;;;24.80;99.90;;;;;;1900008;75;21099;-74
2022/07/04 01:08:06;;;;;;;0.82;0.65;;;24.70;99.90;;;;;;1899969;75;21103;-75
2022/07/04 01:10:58;;;;;;;1.85;0.72;;;24.60;99.90;;;;;;1922176;74;21117;-75
2022/07/04 01:13:49;;;;;;;3.60;1.00;;;24.60;99.90;;;;;;1921980;74;21156;-75
2022/07/04 01:16:40;;;;;;;2.20;1.00;;;24.60;99.90;;;;;;1899860;74;21063;-75
2022/07/04 01:19:32;;;;;;;2.00;1.10;;;24.60;99.90;;;;;;1909119;73;21053;-75
2022/07/04 01:22:23;;;;;;;3.62;1.20;;;24.50;99.90;;;;;;1922505;73;21094;-75
2022/07/04 01:25:14;;;;;;;2.35;1.50;;;24.50;99.90;;;;;;1900918;74;21091;-75
2022/07/04 01:28:07;;;;;;;3.83;1.40;;;24.50;99.90;;;;;;1904504;74;21102;-75
2022/07/04 01:30:59;;;;;;;2.47;1.47;;;24.50;99.90;;;;;;1910302;74;21046;-75
2022/07/04 01:33:50;;;;;;;4.42;1.42;;;24.40;99.90;;;;;;1905269;74;21106;-75
2022/07/04 01:36:41;;;;;;;4.65;1.70;;;24.40;99.90;;;;;;1920554;74;21181;-74
2022/07/04 01:39:32;;;;;;;4.97;1.65;;;24.40;99.90;;;;;;1916761;74;21109;-74
2022/07/04 01:42:24;;;;;;;3.35;1.67;;;24.40;99.90;;;;;;1926551;74;21051;-74
2022/07/04 01:45:15;;;;;;;2.67;1.98;;;24.40;99.90;;;;;;1906299;74;21098;-74
2022/07/04 01:48:08;;;;;;;2.27;1.60;;;24.40;99.90;;;;;;1904624;74;21047;-75
2022/07/04 01:50:59;;;;;;;3.47;1.50;;;24.40;99.90;;;;;;1904358;74;21087;-75
2022/07/04 01:53:51;;;;;;;3.10;1.70;;;24.40;99.90;;;;;;1906862;74;21161;-75
2022/07/04 01:56:42;;;;;;;2.55;1.52;;;24.40;99.90;;;;;;1893872;76;21074;-75
2022/07/04 02:02:42;;;;;;;1.90;1.35;;;24.40;99.90;;;;;;1894264;75;21066;-75
2022/07/04 02:05:33;;;;;;;4.50;1.70;;;24.50;99.90;;;;;;1886436;75;21055;-75
2022/07/04 02:09:14;;;;;;;3.85;1.30;;;24.40;99.90;;;;;;1911320;75;21132;-75
2022/07/04 02:11:17;;;;;;;5.00;1.17;;;24.40;99.90;;;;;;1886127;75;21129;-75
2022/07/04 02:14:10;;;;;;;2.83;1.40;;;24.40;99.90;;;;;;1894916;75;21233;-75
2022/07/04 02:17:02;;;;;;;2.47;1.32;;;24.40;99.90;;;;;;1895134;75;21054;-75
2022/07/04 02:19:53;;;;;;;3.87;1.40;;;24.20;99.90;;;;;;1920490;73;21178;-74
2022/07/04 02:22:44;;;;;;;2.98;1.40;;;24.20;99.90;;;;;;1891399;74;21105;-74
2022/07/04 02:25:35;;;;;;;3.37;1.52;;;24.20;99.90;;;;;;1882125;75;21128;-76
2022/07/04 02:28:28;;;;;;;4.17;1.72;;;24.20;99.90;;;;;;1894525;75;21094;-75
2022/07/04 02:31:19;;;;;;;2.42;1.60;;;24.20;99.90;;;;;;1894644;75;21071;-75
2022/07/04 02:34:11;;;;;;;1.62;1.25;;;24.00;99.90;;;;;;1899506;75;21066;-74
2022/07/04 02:37:03;;;;;;;2.83;1.30;;;24.00;99.90;;;;;;1883863;76;21055;-75
2022/07/04 02:39:54;;;;;;;2.85;1.10;;;24.00;99.90;;;;;;1905950;75;21139;-75
2022/07/04 02:42:45;;;;;;;3.67;1.10;;;24.00;99.90;;;;;;1873596;75;21053;-75
2022/07/04 02:45:36;;;;;;;5.65;0.95;;;24.00;99.90;;;;;;1886065;75;21178;-75
2022/07/04 02:48:27;;;;;;;3.15;0.90;;;24.00;99.90;;;;;;1897795;75;21088;-75
2022/07/04 02:51:19;;;;;;;1.90;1.00;;;24.00;99.90;;;;;;1894864;75;21100;-75
2022/07/04 02:54:10;;;;;;;1.75;1.10;;;23.90;99.90;;;;;;1895077;75;21091;-75
2022/07/04 02:57:02;;;;;;;3.20;1.22;;;23.90;99.90;;;;;;1896413;75;21059;-75
2022/07/04 02:59:53;;;;;;;1.20;1.10;;;23.90;99.90;;;;;;1896015;74;21177;-75
2022/07/04 03:02:45;;;;;;;2.35;1.10;;;23.90;99.90;;;;;;1902941;74;21055;-75
2022/07/04 03:05:36;;;;;;;3.42;1.70;;;23.90;99.90;;;;;;1904615;74;21067;-75
2022/07/04 03:08:28;;;;;;;2.70;1.40;;;23.80;99.90;;;;;;1907035;74;21061;-75
2022/07/04 03:11:22;;;;;;;1.82;1.30;;;23.70;99.90;;;;;;1893762;74;21063;-75
2022/07/04 03:14:14;;;;;;;3.98;1.27;;;23.70;99.90;;;;;;1915691;74;21171;-75
2022/07/04 03:17:05;;;;;;;3.25;1.40;;;23.60;99.90;;;;;;1898171;74;21219;-74
2022/07/04 03:19:56;;;;;;;3.35;1.77;;;23.60;99.90;;;;;;1906233;73;21156;-75
2022/07/04 03:22:48;;;;;;;4.05;1.40;;;23.70;99.90;;;;;;1956896;73;21525;-75
2022/07/04 03:25:40;;;;;;;2.98;1.57;;;23.80;99.90;;;;;;1904626;74;21059;-75
2022/07/04 03:28:32;;;;;;;2.00;1.40;;;23.80;99.90;;;;;;1904120;74;21176;-75
2022/07/04 03:31:24;;;;;;;3.67;1.50;;;23.80;99.90;;;;;;1904332;74;21091;-75
2022/07/04 03:34:15;;;;;;;1.65;1.32;;;23.70;99.90;;;;;;1908695;74;21161;-75
2022/07/04 03:37:07;;;;;;;2.20;1.30;;;23.70;99.90;;;;;;1906428;74;21068;-75
2022/07/04 03:39:58;;;;;;;4.75;1.40;;;23.60;99.90;;;;;;1904207;74;21097;-78
2022/07/04 03:42:50;;;;;;;4.08;1.60;;;23.50;99.90;;;;;;1902393;74;21174;-78
2022/07/04 03:45:41;;;;;;;3.42;1.45;;;23.50;99.90;;;;;;1876456;76;21069;-78
2022/07/04 03:48:32;;;;;;;3.55;1.37;;;23.50;99.90;;;;;;1919324;74;21132;-79
2022/07/04 03:51:23;;;;;;;3.20;1.80;;;23.40;99.90;;;;;;1882890;76;21146;-79
2022/07/04 03:54:15;;;;;;;2.52;1.35;;;23.30;99.90;;;;;;1867101;76;21576;-78
2022/07/04 03:57:08;;;;;;;4.53;1.67;;;23.30;99.90;;;;;;1846906;76;21188;-78
2022/07/04 03:59:59;;;;;;;2.55;1.42;;;23.30;99.90;;;;;;1882506;74;21057;-78
2022/07/04 04:02:50;;;;;;;3.55;1.50;;;23.30;99.90;;;;;;1900092;75;21138;-78
2022/07/04 04:05:42;;;;;;;2.10;1.35;;;23.40;99.90;;;;;;1905495;75;21184;-78
2022/07/04 04:08:33;;;;;;;4.45;1.40;;;23.40;99.90;;;;;;1883802;76;21100;-78
2022/07/04 04:11:25;;;;;;;2.42;1.25;;;23.30;99.90;;;;;;1945286;73;21142;-78
2022/07/04 04:14:16;;;;;;;2.00;1.25;;;23.30;99.90;;;;;;1894614;74;21200;-78
2022/07/04 04:17:07;;;;;;;5.25;1.50;;;23.30;99.90;;;;;;1906218;75;21054;-78
2022/07/04 04:19:59;;;;;;;3.17;1.30;;;23.20;99.90;;;;;;1905190;75;21160;-78
2022/07/04 04:22:50;;;;;;;3.72;1.40;;;23.20;99.90;;;;;;1910452;73;21075;-78
2022/07/04 04:25:42;;;;;;;4.12;1.45;;;23.20;99.90;;;;;;1894572;75;21260;-78
2022/07/04 04:28:33;;;;;;;2.55;1.60;;;23.30;99.90;;;;;;1888125;75;21198;-79
2022/07/04 04:31:25;;;;;;;3.37;1.40;;;23.30;99.90;;;;;;1883846;75;21130;-78
2022/07/04 04:34:17;;;;;;;6.03;1.95;;;23.10;99.90;;;;;;1888605;75;21055;-78
2022/07/04 04:37:08;;;;;;;3.22;1.70;;;23.00;99.90;;;;;;1893260;75;21051;-78
2022/07/04 04:39:59;;;;;;;4.12;1.27;;;23.00;99.90;;;;;;1905307;75;21164;-78
2022/07/04 04:42:50;;;;;;;2.02;1.25;;;23.00;99.90;;;;;;1890275;75;21153;-78
2022/07/04 04:45:42;;;;;;;3.17;1.20;;;23.00;99.90;;;;;;1893491;75;21212;-78
2022/07/04 04:48:33;;;;;;;2.65;1.10;;;23.00;99.90;;;;;;1896899;75;21103;-78
2022/07/04 04:51:24;;;;;;;2.72;1.50;;;22.90;99.90;;;;;;1899011;75;21047;-78
2022/07/04 04:54:16;;;;;;;3.95;1.22;;;22.90;99.90;;;;;;1900680;73;21158;-78
2022/07/04 04:57:07;;;;;;;2.35;1.17;;;23.00;99.90;;;;;;1898299;75;21398;-78
2022/07/04 05:00:01;;;;;;;2.17;1.10;;;23.10;99.90;;;;;;1906273;75;21109;-78
2022/07/04 05:05:31;;;;;;;1.95;1.37;;;23.10;99.90;;;;;;1955441;72;22147;-78
2022/07/04 05:08:24;;;;;;;2.50;1.52;;;23.20;99.90;;;;;;1898111;75;21172;-78
2022/07/04 05:11:14;;;;;;;6.62;1.60;;;23.30;99.90;;;;;;1897010;75;21149;-78
2022/07/04 05:14:05;;;;;;;3.17;1.62;;;23.40;99.90;;;;;;1894564;75;21581;-78
2022/07/04 05:16:57;;;;;;;5.97;1.52;;;23.50;99.90;;;;;;1894697;75;21086;-78
2022/07/04 05:19:48;;;;;;;6.80;1.92;;;23.60;99.90;;;;;;1897924;75;21160;-78
2022/07/04 05:22:39;;;;;;;4.20;1.45;;;23.70;99.90;;;;;;1905117;73;21073;-78
2022/07/04 05:25:30;;;;;;;3.45;1.55;;;23.90;99.90;;;;;;1895047;73;21152;-79
2022/07/04 05:28:21;;;;;;;2.90;1.90;;;23.90;99.90;;;;;;1890877;75;21158;-78
2022/07/04 05:31:12;;;;;;;5.45;1.60;;;23.70;99.90;;;;;;1897669;75;21174;-78
2022/07/04 05:34:03;;;;;;;4.08;1.60;;;23.70;99.90;;;;;;1897657;75;21119;-78
2022/07/04 05:36:54;;;;;;;3.85;1.50;;;23.70;99.90;;;;;;1889128;73;21070;-78
2022/07/04 05:39:46;;;;;;;3.00;1.98;;;23.70;99.90;;;;;;1905683;75;21192;-78
2022/07/04 05:42:37;;;;;;;3.42;1.62;;;23.60;99.90;;;;;;1883716;75;21128;-78
2022/07/04 05:45:28;;;;;;;6.85;1.95;;;23.70;99.90;;;;;;1899124;75;21248;-78
2022/07/04 05:48:20;;;;;;;4.55;1.85;;;23.80;99.90;;;;;;1906958;75;21165;-78
2022/07/04 05:51:11;;;;;;;4.00;1.90;;;24.00;99.90;;;;;;1905765;75;21154;-79
2022/07/04 05:54:04;;;;;;;3.27;1.90;;;24.10;99.90;;;;;;1897344;73;21101;-78
2022/07/04 05:56:55;;;;;;;3.10;1.67;;;24.20;99.90;;;;;;1900277;75;21420;-79
2022/07/04 05:59:46;;;;;;;4.00;1.95;;;24.30;99.90;;;;;;1903097;75;21086;-78
2022/07/04 06:02:38;;;;;;;2.47;1.82;;;24.40;99.90;;;;;;1904928;75;21143;-78
2022/07/04 06:05:29;;;;;;;4.15;1.70;;;24.40;99.90;;;;;;1900967;74;21133;-78
2022/07/04 06:08:21;;;;;;;5.67;1.90;;;24.60;99.90;;;;;;1908631;74;21557;-78
2022/07/04 06:11:14;;;;;;;5.78;2.22;;;24.60;99.90;;;;;;1870390;76;21109;-78
2022/07/04 06:14:05;;;;;;;5.37;2.10;;;24.60;99.90;;;;;;1910682;74;21188;-78
2022/07/04 06:16:56;;;;;;;5.50;1.98;;;24.60;99.90;;;;;;1834691;77;21105;-78
2022/07/04 06:19:48;;;;;;;2.77;1.80;;;24.60;99.90;;;;;;1911895;74;21113;-78
2022/07/04 06:22:43;;;;;;;3.77;2.20;;;24.70;99.90;;;;;;1895865;74;21221;-78
2022/07/04 06:25:35;;;;;;;5.20;2.33;;;24.60;99.90;;;;;;1879835;76;21086;-78
2022/07/04 06:28:26;;;;;;;4.30;2.40;;;24.60;99.90;;;;;;1920997;74;21166;-79
2022/07/04 06:31:18;;;;;;;4.22;1.80;;;24.60;99.90;;;;;;1856131;76;21081;-80
2022/07/04 06:36:49;;;;;;;5.55;1.90;;;24.70;99.90;;;;;;1949511;72;22221;-78
2022/07/04 06:39:40;;;;;;;3.20;1.85;;;24.90;99.90;;;;;;1907363;75;21172;-78
2022/07/04 06:42:31;;;;;;;3.33;1.90;;;25.00;99.90;;;;;;1884530;76;21114;-78
2022/07/04 06:45:22;;;;;;;4.92;2.15;;;25.10;99.90;;;;;;1902281;73;22307;-79
2022/07/04 06:48:14;;;;;;;5.42;1.72;;;25.30;99.90;;;;;;1911877;75;21105;-78
2022/07/04 06:51:07;;;;;;;3.20;1.87;;;25.40;99.90;;;;;;1908719;75;21133;-78
2022/07/04 06:53:59;;;;;;;2.42;1.70;;;25.40;99.90;;;;;;1927293;73;21038;-78
2022/07/04 06:56:51;;;;;;;5.17;1.82;;;25.40;99.90;;;;;;1928628;73;21158;-78
2022/07/04 06:59:43;;;;;;;7.92;2.50;;;25.30;99.90;;;;;;1908185;73;21202;-78
2022/07/04 07:02:39;;;;;;;4.55;1.90;;;25.40;99.90;;;;;;1843466;76;21105;-78
2022/07/04 07:05:31;;;;;;;4.25;1.87;;;25.50;99.90;;;;;;1883861;75;21581;-78
2022/07/04 07:11:12;;;;;;;5.58;2.20;;;25.60;99.90;;;;;;1946353;72;22501;-78
2022/07/04 07:14:05;;;;;;;3.30;1.90;;;25.50;99.90;;;;;;1901805;73;21119;-79
2022/07/04 07:19:41;;;;;;;3.33;2.30;;;25.60;99.90;;;;;;1925119;72;28057;-77
2022/07/04 07:22:32;;;;;;;4.22;2.60;;;25.90;99.90;;;;;;1931403;73;21374;-78
2022/07/04 07:25:24;;;;;;;5.87;2.02;;;25.90;99.90;;;;;;1904745;73;21223;-78
2022/07/04 07:28:18;;;;;;;3.60;1.70;;;25.90;99.90;;;;;;1905601;73;21137;-78
2022/07/04 07:31:09;;;;;;;4.47;1.80;;;25.90;99.90;;;;;;1899525;75;21055;-78
2022/07/04 07:34:00;;;;;;;7.28;2.17;;;26.00;99.90;;;;;;1905662;75;21632;-77
2022/07/04 07:36:51;;;;;;;3.15;1.95;;;26.00;99.90;;;;;;1890339;75;21094;-78
2022/07/04 07:39:43;;;;;;;3.37;2.08;;;26.10;99.90;;;;;;1892094;75;21163;-79
2022/07/04 07:42:34;;;;;;;8.25;2.10;;;26.20;99.90;;;;;;1891457;75;21542;-78
2022/07/04 07:45:26;;;;;;;4.80;2.15;;;26.20;99.90;;;;;;1914239;75;21144;-78
2022/07/04 07:48:17;;;;;;;2.90;1.95;;;26.30;99.90;;;;;;1895000;75;21185;-78
2022/07/04 07:51:08;;;;;;;4.03;2.20;;;26.30;99.90;;;;;;1895056;75;21483;-78
2022/07/04 07:53:59;;;;;;;2.62;1.80;;;26.40;99.90;;;;;;1915412;75;21545;-78
2022/07/04 07:56:51;;;;;;;3.40;1.80;;;26.50;99.90;;;;;;1884640;76;21139;-78
2022/07/04 07:59:43;;;;;;;5.55;1.85;;;26.50;99.90;;;;;;1884480;76;21133;-78
2022/07/04 08:05:44;;;;;;;2.55;1.80;;;26.70;99.90;;;;;;1894563;75;21572;-78
2022/07/04 08:08:35;;;;;;;3.72;1.70;;;26.40;99.90;;;;;;1925759;73;21059;-78
2022/07/04 08:11:27;;;;;;;1.65;1.55;;;26.50;99.90;;;;;;1921014;73;21058;-79
2022/07/04 08:14:18;;;;;;;5.92;1.82;;;26.60;99.90;;;;;;1883961;76;21626;-78
2022/07/04 08:17:10;;;;;;;2.85;1.67;;;26.50;99.90;;;;;;1906238;75;21168;-78
2022/07/04 08:20:02;;;;;;;3.02;1.75;;;26.60;99.90;;;;;;1884118;75;21631;-78
2022/07/04 08:22:54;;;;;;;2.50;1.80;;;26.50;99.90;;;;;;1885018;75;21164;-78
2022/07/04 08:25:45;;;;;;;2.27;1.62;;;26.60;99.90;;;;;;1884545;76;21059;-78
2022/07/04 08:28:36;;;;;;;3.72;1.60;;;26.60;99.90;;;;;;1884351;76;21047;-78
2022/07/04 08:31:28;;;;;;;3.42;1.90;;;26.70;99.90;;;;;;1883817;76;21117;-78
2022/07/04 08:34:21;;;;;;;4.62;2.10;;;26.90;99.90;;;;;;1883887;76;21079;-79
2022/07/04 08:37:12;;;;;;;5.10;1.70;;;26.70;99.90;;;;;;1911849;73;21047;-78
2022/07/04 08:40:07;;;;;;;6.08;2.33;;;26.80;99.90;;;;;;1935215;73;21131;-78
2022/07/04 08:42:58;;;;;;;7.37;2.60;;;26.60;99.90;;;;;;1880963;75;21202;-78
2022/07/04 08:45:50;;;;;;;4.03;2.20;;;26.60;99.90;;;;;;1904573;75;21185;-78
2022/07/04 08:48:45;;;;;;;4.40;2.05;;;26.80;99.90;;;;;;1898934;75;21184;-78
2022/07/04 08:51:41;;;;;;;6.83;2.02;;;26.90;99.90;;;;;;1894858;75;21142;-78
2022/07/04 09:01:00;;;;;;;5.58;1.80;;;27.10;99.90;;;;;;1886305;75;21160;-78
2022/07/04 09:03:52;;;;;;;3.30;2.05;;;27.30;99.90;;;;;;1909416;73;21570;-78
2022/07/04 09:06:46;;;;;;;5.60;2.27;;;27.40;99.90;;;;;;1903603;73;21157;-78
2022/07/04 09:09:40;;;;;;;7.45;2.25;;;27.40;99.90;;;;;;1910917;73;21113;-79
2022/07/04 09:12:33;;;;;;;6.08;2.02;;;27.50;99.90;;;;;;1892957;75;21164;-78
2022/07/04 09:15:27;;;;;;;5.85;1.60;;;27.40;99.90;;;;;;1890401;75;21106;-78
2022/07/04 09:18:27;;;;;;;3.72;1.60;;;27.40;99.90;;;;;;1891939;75;21164;-78
2022/07/04 09:21:18;;;;;;;3.17;1.92;;;27.40;99.90;;;;;;1898106;74;21129;-78
2022/07/04 09:24:10;;;;;;;4.30;1.50;;;27.30;99.90;;;;;;1874850;76;21122;-77
2022/07/04 09:27:04;;;;;;;6.87;2.10;;;27.20;99.90;;;;;;1900890;74;21038;-78
2022/07/04 09:29:57;;;;;;;3.75;1.77;;;27.00;99.90;;;;;;1898900;75;21769;-78
2022/07/04 09:35:34;;;;;;;2.45;1.55;;;26.80;99.90;;;;;;1940820;72;22151;-78
2022/07/04 09:38:25;;;;;;;2.75;1.60;;;26.60;99.90;;;;;;1917058;73;21128;-78
2022/07/04 09:41:26;;;;;;;2.90;1.45;;;26.40;99.90;;;;;;1910812;75;21101;-77
2022/07/04 09:44:18;;;;;;;3.42;1.75;;;26.10;99.90;;;;;;1900530;75;21142;-77
2022/07/04 09:47:22;;;;;;;6.10;1.80;;;25.90;99.90;;;;;;1895025;75;21157;-77
2022/07/04 09:50:16;;;;;;;5.10;1.67;;;25.90;99.90;;;;;;1894623;75;21087;-77
2022/07/04 09:53:09;;;;;;;3.55;1.40;;;26.00;99.90;;;;;;1894809;75;21089;-78
2022/07/04 09:56:00;;;;;;;7.80;1.65;;;26.10;99.90;;;;;;1895903;75;21647;-78
2022/07/04 09:58:59;;;;;;;1.77;1.40;;;26.20;99.90;;;;;;1899900;75;21059;-75
2022/07/04 10:01:51;;;;;;;4.97;1.40;;;26.10;99.90;;;;;;1912438;73;21087;-75
2022/07/04 10:04:47;;;;;;;3.42;1.30;;;26.10;99.90;;;;;;1902389;75;21184;-75
2022/07/04 10:07:43;;;;;;;3.33;1.57;;;26.00;99.90;;;;;;1918251;73;21101;-75
2022/07/04 10:10:38;;;;;;;3.30;1.47;;;26.00;99.90;;;;;;1890648;75;21129;-75
2022/07/04 10:13:31;;;;;;;4.37;1.70;;;26.00;99.90;;;;;;1899384;75;21351;-75
2022/07/04 10:16:22;;;;;;;2.25;1.35;;;25.90;99.90;;;;;;1906303;75;21140;-75
2022/07/04 10:19:16;;;;;;;3.42;1.42;;;25.80;99.90;;;;;;1905995;75;21141;-75
2022/07/04 10:22:09;;;;;;;4.65;1.62;;;26.00;99.90;;;;;;1906436;75;21064;-75
2022/07/04 10:25:00;;;;;;;5.92;1.57;;;26.00;99.90;;;;;;1903921;73;21089;-75
2022/07/04 10:27:51;;;;;;;3.22;1.40;;;26.20;99.90;;;;;;1934101;73;21628;-75
2022/07/04 10:30:44;;;;;;;5.42;1.67;;;26.50;99.90;;;;;;1885576;75;21399;-75
2022/07/04 10:33:37;;;;;;;3.17;1.45;;;26.70;99.90;;;;;;1906280;75;21217;-76
2022/07/04 10:36:30;;;;;;;3.95;1.40;;;26.80;99.90;;;;;;1915774;74;21109;-76
2022/07/04 10:39:24;;;;;;;3.98;1.80;;;26.80;99.90;;;;;;1912208;74;21059;-76
2022/07/04 10:42:25;;;;;;;1.80;1.30;;;27.10;99.90;;;;;;1907089;74;21204;-76
2022/07/04 10:45:32;;;;;;;3.33;1.60;;;27.30;99.90;;;;;;1894319;74;21181;-76
2022/07/04 10:48:24;;;;;;;3.62;1.60;;;27.50;99.90;;;;;;1901808;74;21137;-76
2022/07/04 10:51:16;;;;;;;4.05;1.80;;;27.80;99.90;;;;;;1904125;74;21135;-76
2022/07/04 10:54:10;;;;;;;3.30;1.92;;;28.10;99.90;;;;;;1905986;74;21136;-75
2022/07/04 10:57:16;;;;;;;4.78;2.00;;;28.30;99.90;;;;;;1908722;74;21580;-75
2022/07/04 11:02:53;;;;;;;4.58;2.17;;;28.90;99.90;;;;;;1967947;72;22214;-76
2022/07/04 11:05:44;;;;;;;3.37;2.02;;;29.20;99.90;;;;;;1926888;73;21066;-75
2022/07/04 11:09:06;;;;;;;3.72;2.15;;;29.40;99.90;;;;;;1917585;75;21103;-75
2022/07/04 11:12:01;;;;;;;3.42;1.98;;;29.50;99.90;;;;;;1917401;75;21168;-76
2022/07/04 11:14:52;;;;;;;3.70;2.20;;;29.40;99.90;;;;;;1927291;73;21135;-76
2022/07/04 11:17:43;;;;;;;4.67;2.83;;;29.40;99.90;;;;;;1927555;73;21126;-75
2022/07/04 11:20:36;;;;;;;3.05;2.20;;;29.60;99.90;;;;;;1923566;73;21104;-75
2022/07/04 11:23:27;;;;;;;4.90;2.02;;;29.90;99.90;;;;;;1917209;73;21609;-75
2022/07/04 11:26:21;;;;;;;4.50;2.58;;;29.80;99.90;;;;;;1930301;73;21084;-75
2022/07/04 11:31:56;;;;;;;5.72;2.42;;;29.80;99.90;;;;;;1934330;72;22111;-79
2022/07/04 11:34:48;;;;;;;2.08;1.82;;;29.70;99.90;;;;;;1894971;75;21172;-79
2022/07/04 11:37:39;;;;;;;3.65;1.75;;;29.60;99.90;;;;;;1901078;75;21156;-79
2022/07/04 11:47:09;;;;;;;4.65;1.62;;;29.10;99.90;;;;;;1895063;75;21567;-78
2022/07/04 11:50:02;;;;;;;3.00;1.55;;;29.10;99.90;;;;;;1886636;75;21091;-79
2022/07/04 11:52:56;;;;;;;2.90;1.60;;;28.90;99.90;;;;;;1892736;75;21055;-80
2022/07/04 11:55:56;;;;;;;6.62;1.95;;;28.90;99.90;;;;;;1908077;73;21560;-80
2022/07/04 11:58:47;;;;;;;4.72;1.90;;;28.70;99.90;;;;;;1900540;75;21118;-78
2022/07/04 12:01:38;;;;;;;3.58;1.82;;;28.90;99.90;;;;;;1901859;75;21139;-78
2022/07/04 12:04:31;;;;;;;3.50;1.65;;;28.90;99.90;;;;;;1936647;73;21093;-79
2022/07/04 12:07:24;;;;;;;5.12;1.87;;;29.10;99.90;;;;;;1894779;75;21067;-79
2022/07/04 12:10:18;;;;;;;3.08;1.57;;;29.00;99.90;;;;;;1900397;75;21114;-79
2022/07/04 12:13:13;;;;;;;5.78;1.80;;;28.70;99.90;;;;;;1898518;75;21147;-79
2022/07/04 12:16:08;;;;;;;6.97;2.12;;;28.70;99.90;;;;;;1905684;75;21591;-79
2022/07/04 12:19:09;;;;;;;3.65;1.70;;;28.60;99.90;;;;;;1861326;76;21148;-79
2022/07/04 12:22:00;;;;;;;6.58;2.22;;;28.50;99.90;;;;;;1867071;76;21095;-79
2022/07/04 12:24:52;;;;;;;3.85;2.20;;;28.30;99.90;;;;;;1852459;76;21202;-79
2022/07/04 12:27:45;;;;;;;3.30;1.67;;;28.20;99.90;;;;;;1865846;74;21121;-79
2022/07/04 12:33:22;;;;;;;2.85;1.75;;;28.00;99.90;;;;;;1949952;72;22138;-79
2022/07/04 12:36:13;;;;;;;2.77;1.80;;;28.20;99.90;;;;;;1919646;73;21098;-79
2022/07/04 12:39:04;;;;;;;3.20;2.25;;;28.10;99.90;;;;;;1917058;73;21506;-79
2022/07/04 12:42:07;;;;;;;5.45;1.80;;;27.90;99.90;;;;;;1934640;73;21058;-78
2022/07/04 12:45:02;;;;;;;4.80;1.87;;;27.90;99.90;;;;;;1917365;75;21055;-78
2022/07/04 12:47:54;;;;;;;6.37;2.00;;;28.00;99.90;;;;;;1919111;73;21590;-79
2022/07/04 12:50:46;;;;;;;4.60;1.62;;;28.00;99.90;;;;;;1936691;73;21059;-78
2022/07/04 12:53:39;;;;;;;6.08;1.60;;;27.90;99.90;;;;;;1930483;73;21199;-79
2022/07/04 12:56:32;;;;;;;4.80;1.70;;;28.30;99.90;;;;;;1920188;73;21195;-79
2022/07/04 12:59:23;;;;;;;3.08;1.85;;;28.40;99.90;;;;;;1920293;73;21106;-78
2022/07/04 13:02:16;;;;;;;4.55;1.72;;;28.50;99.90;;;;;;1929377;73;21164;-79
2022/07/04 13:05:08;;;;;;;3.10;1.80;;;28.30;99.90;;;;;;1933226;73;21114;-78
2022/07/04 13:08:01;;;;;;;2.90;1.60;;;28.30;99.90;;;;;;1917260;75;21100;-78
2022/07/04 13:12:24;;;;;;;4.20;1.90;;;28.00;99.90;;;;;;1917339;75;21072;-78
2022/07/04 13:13:45;;;;;;;4.53;1.70;;;28.10;99.90;;;;;;1916830;75;21110;-80
2022/07/04 13:16:37;;;;;;;3.35;1.75;;;28.10;99.90;;;;;;1934949;73;21118;-78
2022/07/04 13:19:30;;;;;;;3.05;1.67;;;28.10;99.90;;;;;;1938483;73;21064;-78
2022/07/04 13:22:22;;;;;;;4.12;2.00;;;28.30;99.90;;;;;;1919540;73;21196;-78
2022/07/04 13:25:13;;;;;;;4.85;1.65;;;28.40;99.90;;;;;;1942061;73;21306;-79
2022/07/04 13:28:05;;;;;;;3.90;1.92;;;28.40;99.90;;;;;;1919022;73;21060;-79
2022/07/04 13:30:57;;;;;;;3.83;1.85;;;28.50;99.90;;;;;;1916690;75;21154;-78
2022/07/04 13:33:48;;;;;;;3.02;2.08;;;28.70;99.90;;;;;;1907180;75;21087;-79
2022/07/04 13:36:41;;;;;;;3.58;1.40;;;28.90;99.90;;;;;;1917085;75;21103;-79
2022/07/04 13:39:32;;;;;;;3.77;1.57;;;29.00;99.90;;;;;;1925437;74;21059;-79
2022/07/04 13:45:34;;;;;;;4.28;1.55;;;29.10;99.90;;;;;;1906842;74;21118;-79
2022/07/04 13:48:26;;;;;;;2.47;1.82;;;29.20;99.90;;;;;;1903828;75;21312;-78
2022/07/04 13:51:17;;;;;;;4.90;1.75;;;29.00;99.90;;;;;;1931220;73;21133;-78
2022/07/04 13:54:09;;;;;;;4.00;1.98;;;29.10;99.90;;;;;;1928656;73;21577;-79
2022/07/04 13:57:00;;;;;;;3.80;1.82;;;29.40;99.90;;;;;;1922431;73;21605;-79
2022/07/04 13:59:52;;;;;;;4.15;1.65;;;29.60;99.90;;;;;;1915895;75;21166;-79
2022/07/04 14:02:43;;;;;;;6.15;2.12;;;30.10;99.90;;;;;;1931136;73;22379;-78
2022/07/04 14:05:35;;;;;;;8.40;2.70;;;30.10;99.90;;;;;;1922112;73;21570;-79
2022/07/04 14:08:27;;;;;;;5.45;1.77;;;30.00;99.90;;;;;;1903324;75;21175;-78
2022/07/04 14:11:18;;;;;;;2.10;1.65;;;30.10;99.90;;;;;;1916196;75;21102;-78
2022/07/04 14:14:10;;;;;;;3.58;1.50;;;29.80;99.90;;;;;;1934291;73;21343;-79
2022/07/04 14:17:02;;;;;;;4.20;1.92;;;29.50;99.90;;;;;;1902493;75;21161;-84
2022/07/04 14:19:55;;;;;;;5.37;1.87;;;29.50;99.90;;;;;;1915795;75;21197;-80
2022/07/04 14:22:47;;;;;;;3.65;1.57;;;29.30;99.90;;;;;;1909591;73;21293;-78
2022/07/04 14:25:39;;;;;;;3.02;1.30;;;29.40;99.90;;;;;;1903390;74;21151;-79
2022/07/04 14:28:31;;;;;;;2.40;1.60;;;29.40;99.90;;;;;;1903472;75;21494;-79
2022/07/04 14:31:23;;;;;;;4.35;1.57;;;29.50;99.90;;;;;;1936278;73;21098;-79
2022/07/04 14:34:15;;;;;;;4.40;1.62;;;29.70;99.90;;;;;;1921988;74;21574;-79
2022/07/04 14:37:12;;;;;;;6.05;1.80;;;30.00;99.90;;;;;;1925797;74;21160;-79
2022/07/04 14:40:11;;;;;;;5.42;1.80;;;30.00;99.90;;;;;;1925652;74;21093;-79
2022/07/04 14:43:02;;;;;;;3.30;1.35;;;30.10;99.90;;;;;;1925930;74;21165;-79
2022/07/04 14:45:54;;;;;;;3.65;1.72;;;30.20;99.90;;;;;;1945317;73;21102;-79
2022/07/04 14:48:45;;;;;;;3.70;1.42;;;30.10;99.90;;;;;;1940035;73;21179;-79
2022/07/04 14:51:39;;;;;;;3.25;1.70;;;30.30;99.90;;;;;;1931674;73;21139;-79
2022/07/04 14:54:30;;;;;;;3.17;1.60;;;30.30;99.90;;;;;;1925448;74;21221;-79
2022/07/04 14:57:21;;;;;;;3.65;1.40;;;30.10;99.90;;;;;;1925288;74;21104;-79
2022/07/04 15:00:15;;;;;;;2.33;1.47;;;30.00;99.90;;;;;;1925564;74;21126;-82
2022/07/04 15:03:06;;;;;;;5.00;1.60;;;30.10;99.90;;;;;;1935608;73;21106;-78
2022/07/04 15:05:57;;;;;;;6.33;1.60;;;30.10;99.90;;;;;;1932703;73;21098;-79
2022/07/04 15:08:49;;;;;;;5.05;1.40;;;30.10;99.90;;;;;;1925322;74;21238;-78
2022/07/04 15:11:40;;;;;;;1.90;1.20;;;30.50;99.90;;;;;;1925468;74;21120;-78
2022/07/04 15:14:32;;;;;;;2.67;1.30;;;30.90;99.90;;;;;;1925758;74;21536;-79
2022/07/04 15:17:24;;;;;;;2.20;1.47;;;31.60;99.90;;;;;;1925738;74;21208;-78
2022/07/04 15:26:34;;;;;;;2.10;1.50;;;32.20;99.90;;;;;;1898564;75;21107;-79
2022/07/04 15:29:26;;;;;;;4.40;1.40;;;32.30;99.90;;;;;;1916095;75;21334;-78
2022/07/04 15:32:17;;;;;;;2.33;1.15;;;32.30;99.90;;;;;;1916107;75;21125;-79
2022/07/04 15:35:10;;;;;;;5.58;1.20;;;32.40;99.90;;;;;;1916318;75;21208;-78
2022/07/04 15:38:03;;;;;;;1.87;1.10;;;32.40;99.90;;;;;;1916022;75;21106;-78
2022/07/04 15:40:54;;;;;;;2.75;1.30;;;32.00;99.90;;;;;;1916068;75;21148;-78
2022/07/04 15:43:47;;;;;;;4.33;1.40;;;32.10;99.90;;;;;;1915821;75;21383;-78
2022/07/04 15:47:07;;;;;;;2.12;1.20;;;31.70;99.90;;;;;;1938292;73;21066;-79
2022/07/04 15:49:31;;;;;;;4.65;1.50;;;31.00;99.90;;;;;;1932840;73;21132;-79